Airport View

Enter AWOS ICAO identifier for current METAR.

ex. KFNL

KCCR 212253Z 33004KT 10SM CLR 32/05 A2987 RMK AO2 SLP102 T03170050

21 Sep 2019 23:57

Phone: 925-689-2077

Other Area AWOS: KAPC - KSUU - KOAK - KHWD

TAF AMD KSUU 212016Z 2120/2301 36012G18KT 9999 SKC QNH2984INS TEMPO 2120/2202 36015G25KT BECMG 2201/2202 24009KT 9999 SKC QNH2985INS BECMG 2209/2210 VRB06KT 9999 SKC QNH2985INS TX32/2123Z TN10/2213Z